Portada
METAR-TAF:

METAR-TAF

Aeroports :

Niamey, Níger

Aeroport Internacional Diori Hamani

latitud: 13-29N, longitud: 002-10E, altitud: 223 m

Observació

L'informe es va fer fa 53 minuts, a les 00:00 UTC
Vent 2 kt del Nord-Est
Temperatura 21°C
Humitat 16%
Pressió 1013 hPa
Visibilitat: 8000 m

METAR: DRRN 200000Z 05002KT 8000 NSC 21/M06 Q1013 NOSIG

Hora: 01:53 (00:53 UTC)

Pronòstic

L'informe es va fer fa 1 hora i 53 minuts, a les 23:00 UTC
Pronòstic vàlid del 20 a les 00 UTC al 21 a les 06 UTC
Vent 6 kt del Nord-Est
Visibilitat: 8000 m
Temporalment
l' 20 a les 06 UTC al 20 a les 12 UTC
Vent 16 kt del Est
Visibilitat: 4000 m
torb alta de pols
Temporalment
l' 20 a les 17 UTC al 20 a les 20 UTC
Visibilitat: 4000 m
Pols estès

TAF: DRRN 192300Z 2000/2106 04006KT 8000 NSC TEMPO 2006/2012 08016KT 4000 BLDU TEMPO 2017/2020 4000 DU

Observacions i pronòstics meteorològics de més de 4000 aeroports (METAR i TAF).

Les estacions disponibles són els punts grocs i vermells al mapa.

Posi el ratolí al punt desitjat per veure el nom de l'estació.

Feu clic per veure les observacions i els pronòstics meteorològics.

Per canviar el mapa: feu clic els botons verds amb una creu de color negre per apropar; al botó verd amb un guió per allunyar la imatge; o en les fletxes verdes per a mapes adjacents.


METAR-TAF: